Time;durP1;ratioP1;P1;durP2;ratioP2;P2;SDS_P1;SDS_P2;PMS_P1;PMS_P2;Temp;Humidity;BMP_temperature;BMP_pressure;BME280_temperature;BME280_humidity;BME280_pressure;Samples;Min_cycle;Max_cycle;Signal;HPM_P1;HPM_P2
2023/05/30 00:00:43;;;;;;;1999.90;999.90;;;14.60;94.90;;;;;;6324844;22;20001;-80
2023/05/30 00:03:09;;;;;;;1999.90;999.90;;;14.60;94.50;;;;;;6323931;22;20066;-81
2023/05/30 00:05:35;;;;;;;1999.90;999.90;;;14.70;94.50;;;;;;6324560;22;20458;-81
2023/05/30 00:08:01;;;;;;;1999.90;999.90;;;14.80;94.30;;;;;;6219191;23;20017;-80
2023/05/30 00:10:26;;;;;;;1999.90;999.90;;;15.00;94.20;;;;;;6324659;22;20440;-80
2023/05/30 00:12:52;;;;;;;1999.90;999.90;;;15.00;93.90;;;;;;6324235;22;20339;-80
2023/05/30 00:15:18;;;;;;;1999.90;999.90;;;15.10;93.50;;;;;;6221597;22;20010;-79
2023/05/30 00:17:43;;;;;;;1999.90;999.90;;;15.10;93.70;;;;;;6327130;22;20013;-79
2023/05/30 00:20:09;;;;;;;1999.90;999.90;;;15.00;93.80;;;;;;6222106;22;20032;-79
2023/05/30 00:22:41;;;;;;;1999.90;999.90;;;14.90;93.80;;;;;;6326583;22;20009;-80
2023/05/30 00:25:07;;;;;;;1999.90;999.90;;;14.90;94.10;;;;;;6221614;22;20491;-79
2023/05/30 00:27:33;;;;;;;1999.90;999.90;;;14.80;94.10;;;;;;6326758;22;20845;-79
2023/05/30 00:29:58;;;;;;;1999.90;999.90;;;14.80;94.10;;;;;;6328571;22;20009;-79
2023/05/30 00:32:24;;;;;;;1999.90;999.90;;;14.80;94.20;;;;;;6328444;22;20326;-80
2023/05/30 00:34:49;;;;;;;1999.90;999.90;;;14.80;94.20;;;;;;6221968;22;20040;-78
2023/05/30 00:37:15;;;;;;;1999.90;999.90;;;14.80;94.40;;;;;;6328267;22;20345;-79
2023/05/30 00:39:41;;;;;;;1999.90;999.90;;;14.90;94.40;;;;;;6223456;22;20375;-79
2023/05/30 00:42:07;;;;;;;1999.90;999.90;;;15.00;94.10;;;;;;6222414;23;20009;-79
2023/05/30 00:44:32;;;;;;;1999.90;999.90;;;15.10;94.20;;;;;;6329473;22;20036;-80
2023/05/30 00:46:58;;;;;;;1999.90;999.90;;;15.00;94.00;;;;;;6224826;22;20020;-78
2023/05/30 00:49:25;;;;;;;1999.90;999.90;;;14.90;94.10;;;;;;6329687;22;20481;-78
2023/05/30 00:51:50;;;;;;;1999.90;999.90;;;14.90;94.50;;;;;;6224242;23;20001;-79
2023/05/30 00:54:17;;;;;;;1999.90;999.90;;;14.80;95.00;;;;;;6225536;22;20005;-79
2023/05/30 00:56:43;;;;;;;1999.90;999.90;;;14.80;94.60;;;;;;6229495;22;20009;-79
2023/05/30 00:59:08;;;;;;;1999.90;999.90;;;14.80;94.40;;;;;;6223016;23;20055;-79
2023/05/30 01:01:34;;;;;;;1999.90;999.90;;;14.80;94.50;;;;;;6220830;22;20013;-80
2023/05/30 01:04:01;;;;;;;1999.90;999.90;;;15.00;94.50;;;;;;6220782;23;20074;-79
2023/05/30 01:06:30;;;;;;;1999.90;999.90;;;14.90;94.70;;;;;;6221637;22;20019;-79
2023/05/30 01:08:59;;;;;;;1999.90;999.90;;;14.90;94.60;;;;;;6327601;22;20013;-79
2023/05/30 01:11:49;;;;;;;1999.90;999.90;;;14.90;94.60;;;;;;6221776;23;20008;-79
2023/05/30 01:14:34;;;;;;;1999.90;999.90;;;14.80;94.60;;;;;;6327694;22;20009;-80
2023/05/30 01:17:47;;;;;;;1999.90;999.90;;;14.80;94.60;;;;;;6328353;22;20040;-80
2023/05/30 01:20:18;;;;;;;1999.90;999.90;;;14.70;94.80;;;;;;6276320;22;20412;-80
2023/05/30 01:23:09;;;;;;;1999.90;999.90;;;14.60;94.90;;;;;;6222808;22;20009;-80
2023/05/30 01:25:58;;;;;;;1999.90;999.90;;;14.50;95.20;;;;;;6251947;22;20037;-80
2023/05/30 01:28:28;;;;;;;1999.90;999.90;;;14.50;95.40;;;;;;6223623;22;20017;-80
2023/05/30 01:30:55;;;;;;;1999.90;999.90;;;14.40;95.30;;;;;;6222251;22;20448;-80
2023/05/30 01:33:22;;;;;;;1999.90;999.90;;;14.40;95.60;;;;;;6330343;22;20028;-80
2023/05/30 01:35:48;;;;;;;1999.90;999.90;;;14.30;95.60;;;;;;6225821;22;20009;-79
2023/05/30 01:38:15;;;;;;;1999.90;999.90;;;14.20;96.00;;;;;;6345020;22;20092;-79
2023/05/30 01:41:00;;;;;;;1999.90;999.90;;;14.20;96.40;;;;;;6220954;22;20005;-82
2023/05/30 01:43:53;;;;;;;1999.90;999.90;;;14.10;96.30;;;;;;6218056;23;20005;-80
2023/05/30 01:46:38;;;;;;;1999.90;999.90;;;14.00;96.60;;;;;;6218137;22;20005;-80
2023/05/30 01:49:23;;;;;;;1999.90;999.90;;;13.90;97.40;;;;;;6324654;22;20467;-80
2023/05/30 01:52:01;;;;;;;1999.90;999.90;;;13.80;97.50;;;;;;6219136;22;20031;-80
2023/05/30 01:54:30;;;;;;;1999.90;999.90;;;13.70;97.50;;;;;;6218736;23;20002;-80
2023/05/30 01:57:09;;;;;;;1999.90;999.90;;;13.60;97.60;;;;;;6218499;22;20412;-80
2023/05/30 01:59:37;;;;;;;1999.90;999.90;;;13.50;97.90;;;;;;6218483;22;20013;-80
2023/05/30 02:02:03;;;;;;;1999.90;999.90;;;13.50;97.90;;;;;;6323579;22;20065;-80
2023/05/30 02:04:30;;;;;;;1999.90;999.90;;;13.40;99.30;;;;;;6218791;23;20344;-80
2023/05/30 02:06:56;;;;;;;1999.90;999.90;;;13.40;99.50;;;;;;6324716;22;20448;-80
2023/05/30 02:09:23;;;;;;;1999.90;999.90;;;13.40;99.90;;;;;;6324412;22;20013;-80
2023/05/30 02:11:48;;;;;;;1999.90;999.90;;;13.30;99.90;;;;;;6324163;22;20040;-80
2023/05/30 02:14:14;;;;;;;1999.90;999.90;;;13.20;99.90;;;;;;6219853;22;20020;-80
2023/05/30 02:16:40;;;;;;;1999.90;999.90;;;13.10;99.90;;;;;;6219029;22;20047;-80
2023/05/30 02:19:06;;;;;;;1999.90;999.90;;;13.10;99.90;;;;;;6218795;23;20005;-80
2023/05/30 02:21:32;;;;;;;1999.90;999.90;;;13.00;99.90;;;;;;6324494;22;20009;-79
2023/05/30 02:23:58;;;;;;;1999.90;999.90;;;13.00;99.90;;;;;;6324460;22;20040;-80
2023/05/30 02:26:26;;;;;;;1999.90;999.90;;;12.90;99.90;;;;;;6219216;22;20127;-80
2023/05/30 02:28:51;;;;;;;1999.90;999.90;;;12.90;99.90;;;;;;6324798;22;20028;-80
2023/05/30 02:31:17;;;;;;;1999.90;999.90;;;12.80;99.90;;;;;;6324677;22;20336;-80
2023/05/30 02:33:43;;;;;;;1999.90;999.90;;;12.80;99.90;;;;;;6220240;22;20013;-80
2023/05/30 02:36:09;;;;;;;1999.90;999.90;;;12.70;99.90;;;;;;6325917;22;20005;-80
2023/05/30 02:38:34;;;;;;;1999.90;999.90;;;12.70;99.90;;;;;;6326195;22;20181;-80
2023/05/30 02:41:00;;;;;;;1999.90;999.90;;;12.60;99.90;;;;;;6325676;22;20005;-80
2023/05/30 02:43:26;;;;;;;1999.90;999.90;;;12.60;99.90;;;;;;6326390;22;20013;-80
2023/05/30 02:45:51;;;;;;;1999.90;999.90;;;12.60;99.90;;;;;;6220784;22;20027;-80
2023/05/30 02:48:18;;;;;;;1999.90;999.90;;;12.60;99.90;;;;;;6326134;22;20017;-80
2023/05/30 02:50:44;;;;;;;1999.90;999.90;;;12.60;99.90;;;;;;6221796;22;19998;-80
2023/05/30 02:53:09;;;;;;;1999.90;999.90;;;12.50;99.90;;;;;;6221371;23;20434;-80
2023/05/30 02:55:35;;;;;;;1999.90;999.90;;;12.50;99.90;;;;;;6221142;22;20460;-80
2023/05/30 02:58:00;;;;;;;1999.90;999.90;;;12.50;99.90;;;;;;6222529;22;20009;-80
2023/05/30 03:00:26;;;;;;;1999.90;999.90;;;12.50;99.90;;;;;;6327781;22;20009;-80
2023/05/30 03:02:52;;;;;;;1999.90;999.90;;;12.50;99.90;;;;;;6328977;22;20408;-80
2023/05/30 03:05:17;;;;;;;1999.90;999.90;;;12.50;99.90;;;;;;6328123;22;20092;-80
2023/05/30 03:07:44;;;;;;;1999.90;999.90;;;12.50;99.90;;;;;;6328369;22;20020;-80
2023/05/30 03:10:10;;;;;;;1999.90;999.90;;;12.50;99.90;;;;;;6331013;22;20076;-80
2023/05/30 03:12:35;;;;;;;1999.90;999.90;;;12.50;99.90;;;;;;6225973;22;20033;-80
2023/05/30 03:15:01;;;;;;;1999.90;999.90;;;12.60;99.90;;;;;;6329236;22;20010;-80
2023/05/30 03:17:26;;;;;;;1999.90;999.90;;;12.60;99.90;;;;;;6333871;22;20017;-81
2023/05/30 03:19:52;;;;;;;1999.90;999.90;;;12.60;99.90;;;;;;6228847;22;20009;-80
2023/05/30 03:22:17;;;;;;;1999.90;999.90;;;12.60;99.90;;;;;;6328951;22;20475;-80
2023/05/30 03:24:43;;;;;;;1999.90;999.90;;;12.60;99.90;;;;;;6224229;22;20015;-80
2023/05/30 03:27:08;;;;;;;1999.90;999.90;;;12.60;99.90;;;;;;6224616;22;20084;-80
2023/05/30 03:29:34;;;;;;;1999.90;999.90;;;12.60;99.90;;;;;;6330135;22;20001;-80
2023/05/30 03:32:00;;;;;;;1999.90;999.90;;;12.60;99.90;;;;;;6225198;22;20013;-80
2023/05/30 03:34:25;;;;;;;1999.90;999.90;;;12.70;99.90;;;;;;6330953;22;20009;-80
2023/05/30 03:36:52;;;;;;;1999.90;999.90;;;12.70;99.90;;;;;;6332865;22;20013;-80
2023/05/30 03:39:21;;;;;;;1999.90;999.90;;;12.80;99.90;;;;;;6228476;22;20448;-80
2023/05/30 03:41:47;;;;;;;1999.90;999.90;;;12.80;99.90;;;;;;6336604;22;20400;-80
2023/05/30 03:44:12;;;;;;;1999.90;999.90;;;12.90;99.90;;;;;;6332185;22;20017;-80
2023/05/30 03:46:38;;;;;;;1999.90;999.90;;;12.90;99.90;;;;;;6324551;22;20015;-80
2023/05/30 03:49:03;;;;;;;1999.90;999.90;;;12.90;99.90;;;;;;6324231;22;20467;-80
2023/05/30 03:51:29;;;;;;;1999.90;999.90;;;12.90;99.90;;;;;;6219527;22;20001;-80
2023/05/30 03:53:54;;;;;;;1999.90;999.90;;;13.00;99.90;;;;;;6324340;22;20009;-80
2023/05/30 03:56:20;;;;;;;1999.90;999.90;;;13.10;99.90;;;;;;6324354;22;20570;-80
2023/05/30 03:58:45;;;;;;;1999.90;999.90;;;13.00;99.90;;;;;;6323162;22;20009;-80
2023/05/30 04:01:11;;;;;;;1999.90;999.90;;;13.00;99.90;;;;;;6217641;22;20047;-80
2023/05/30 04:03:37;;;;;;;1999.90;999.90;;;13.00;99.90;;;;;;6323722;22;20012;-80
2023/05/30 04:06:05;;;;;;;1999.90;999.90;;;13.00;99.90;;;;;;6219693;22;20005;-80
2023/05/30 04:08:31;;;;;;;1999.90;999.90;;;13.00;99.90;;;;;;6325856;22;20067;-80
2023/05/30 04:10:57;;;;;;;1999.90;999.90;;;13.10;99.90;;;;;;6325396;22;20020;-80
2023/05/30 04:13:22;;;;;;;1999.90;999.90;;;13.10;99.90;;;;;;6220176;22;20020;-79
2023/05/30 04:15:48;;;;;;;1999.90;999.90;;;13.20;99.90;;;;;;6219307;22;20021;-79
2023/05/30 04:18:13;;;;;;;1999.90;999.90;;;13.20;99.90;;;;;;6219989;22;20005;-80
2023/05/30 04:20:39;;;;;;;1999.90;999.90;;;13.20;99.90;;;;;;6323479;22;20005;-80
2023/05/30 04:23:04;;;;;;;1999.90;999.90;;;13.20;99.90;;;;;;6324174;22;20033;-80
2023/05/30 04:25:30;;;;;;;1999.90;999.90;;;13.30;99.70;;;;;;6219812;22;20437;-80
2023/05/30 04:27:56;;;;;;;1999.90;999.90;;;13.30;99.90;;;;;;6219310;22;20020;-80
2023/05/30 04:30:21;;;;;;;1999.90;999.90;;;13.30;99.70;;;;;;6219579;22;20008;-80
2023/05/30 04:32:47;;;;;;;1999.90;999.90;;;13.40;99.60;;;;;;6219221;22;20009;-79
2023/05/30 04:35:13;;;;;;;1999.90;999.90;;;13.40;99.60;;;;;;6328395;22;20130;-80
2023/05/30 04:37:43;;;;;;;1999.90;999.90;;;13.50;99.40;;;;;;6329845;22;20009;-79
2023/05/30 04:40:12;;;;;;;1999.90;999.90;;;13.60;99.10;;;;;;6230293;22;20079;-82
2023/05/30 04:42:38;;;;;;;1999.90;999.90;;;13.70;98.30;;;;;;6335756;22;20020;-81
2023/05/30 04:45:05;;;;;;;1999.90;999.90;;;13.80;98.20;;;;;;6336698;22;20005;-82
2023/05/30 04:47:30;;;;;;;1999.90;999.90;;;13.90;97.80;;;;;;6327357;22;20064;-78
2023/05/30 04:50:00;;;;;;;1999.90;999.90;;;14.00;97.60;;;;;;6218957;22;20032;-78
2023/05/30 04:52:26;;;;;;;1999.90;999.90;;;14.10;97.50;;;;;;6324322;22;20005;-78
2023/05/30 04:54:52;;;;;;;1999.90;999.90;;;14.20;97.30;;;;;;6211795;23;20433;-77
2023/05/30 04:57:19;;;;;;;1999.90;999.90;;;14.30;97.10;;;;;;6215839;23;20009;-75
2023/05/30 04:59:45;;;;;;;1999.90;999.90;;;14.30;97.30;;;;;;6216316;22;20451;-75
2023/05/30 05:02:10;;;;;;;1999.90;999.90;;;14.40;96.70;;;;;;6216046;23;20016;-75
2023/05/30 05:04:36;;;;;;;1999.90;999.90;;;14.40;96.30;;;;;;6216687;22;20066;-75
2023/05/30 05:07:02;;;;;;;1999.90;999.90;;;14.40;96.40;;;;;;6216614;23;20020;-75
2023/05/30 05:09:27;;;;;;;1999.90;999.90;;;14.50;96.60;;;;;;6216554;22;20005;-75
2023/05/30 05:11:56;;;;;;;1999.90;999.90;;;14.60;96.20;;;;;;6216561;22;20415;-75
2023/05/30 05:14:22;;;;;;;1999.90;999.90;;;14.60;95.70;;;;;;6216254;22;20017;-75
2023/05/30 05:16:48;;;;;;;1999.90;999.90;;;14.70;95.50;;;;;;6216056;23;20056;-75
2023/05/30 05:19:13;;;;;;;1999.90;999.90;;;14.80;95.40;;;;;;6216112;22;20017;-75
2023/05/30 05:21:39;;;;;;;1999.90;999.90;;;14.80;95.70;;;;;;6216017;22;20055;-75
2023/05/30 05:24:05;;;;;;;1999.90;999.90;;;14.80;95.80;;;;;;6216355;22;20076;-75
2023/05/30 05:26:31;;;;;;;1999.90;999.90;;;15.00;96.10;;;;;;6216433;23;20001;-75
2023/05/30 05:28:56;;;;;;;1999.90;999.90;;;15.10;94.80;;;;;;6216644;22;20009;-75
2023/05/30 05:31:22;;;;;;;1999.90;999.90;;;15.10;95.40;;;;;;6214930;22;20001;-75
2023/05/30 05:33:48;;;;;;;1999.90;999.90;;;15.20;95.80;;;;;;6216392;22;20020;-75
2023/05/30 05:36:14;;;;;;;1999.90;999.90;;;15.20;94.60;;;;;;6216588;22;20005;-76
2023/05/30 05:38:39;;;;;;;1999.90;999.90;;;15.30;94.10;;;;;;6217194;22;20032;-75
2023/05/30 05:41:05;;;;;;;1999.90;999.90;;;15.30;94.60;;;;;;6322141;22;20012;-75
2023/05/30 05:43:31;;;;;;;1999.90;999.90;;;15.30;94.00;;;;;;6216599;22;20020;-80
2023/05/30 05:45:56;;;;;;;1999.90;999.90;;;15.20;94.70;;;;;;6216279;22;20428;-76
2023/05/30 05:48:22;;;;;;;1999.90;999.90;;;15.20;94.70;;;;;;6216477;22;20044;-76
2023/05/30 05:50:47;;;;;;;1999.90;999.90;;;15.30;94.30;;;;;;6322331;22;20009;-75
2023/05/30 05:53:13;;;;;;;1999.90;999.90;;;15.40;94.00;;;;;;6216103;22;20013;-76
2023/05/30 05:55:39;;;;;;;1999.90;999.90;;;15.50;94.00;;;;;;6215815;22;20009;-76
2023/05/30 05:58:04;;;;;;;1999.90;999.90;;;15.50;93.40;;;;;;6216581;22;20032;-75
2023/05/30 06:00:30;;;;;;;1999.90;999.90;;;15.50;93.70;;;;;;6216450;22;20087;-76
2023/05/30 06:02:56;;;;;;;1999.90;999.90;;;15.50;93.50;;;;;;6216074;23;20096;-75
2023/05/30 06:05:22;;;;;;;1999.90;999.90;;;15.50;93.50;;;;;;6215768;23;20086;-75
2023/05/30 06:07:47;;;;;;;1999.90;999.90;;;15.60;93.20;;;;;;6216134;22;20060;-74
2023/05/30 06:10:13;;;;;;;1999.90;999.90;;;15.60;93.30;;;;;;6216555;22;20797;-75
2023/05/30 06:12:39;;;;;;;1999.90;999.90;;;15.60;92.90;;;;;;6215786;22;20398;-75
2023/05/30 06:15:06;;;;;;;1999.90;999.90;;;15.70;92.70;;;;;;6216640;22;20150;-75
2023/05/30 06:17:31;;;;;;;1999.90;999.90;;;15.80;93.00;;;;;;6216275;23;20005;-74
2023/05/30 06:19:57;;;;;;;1999.90;999.90;;;15.90;92.90;;;;;;6216235;22;20006;-76
2023/05/30 06:22:22;;;;;;;1999.90;999.90;;;15.90;92.90;;;;;;6215843;22;20017;-82
2023/05/30 06:24:48;;;;;;;1999.90;999.90;;;16.00;92.50;;;;;;6216578;22;20337;-77
2023/05/30 06:27:14;;;;;;;1999.90;999.90;;;16.10;92.20;;;;;;6216296;22;20368;-76
2023/05/30 06:29:41;;;;;;;1999.90;999.90;;;16.20;91.80;;;;;;6321794;22;20009;-76
2023/05/30 06:32:10;;;;;;;1999.90;999.90;;;16.20;92.20;;;;;;6215673;23;20070;-77
2023/05/30 06:34:35;;;;;;;1999.90;999.90;;;16.30;91.80;;;;;;6215880;23;20392;-77
2023/05/30 06:37:01;;;;;;;1999.90;999.90;;;16.40;91.70;;;;;;6216203;22;20001;-77
2023/05/30 06:39:27;;;;;;;1999.90;999.90;;;16.50;91.20;;;;;;6216149;22;20008;-76
2023/05/30 06:41:53;;;;;;;1999.90;999.90;;;16.50;91.30;;;;;;6215759;22;20045;-76
2023/05/30 06:44:18;;;;;;;1999.90;999.90;;;16.50;91.20;;;;;;6217734;22;20009;-77
2023/05/30 06:46:44;;;;;;;1999.90;999.90;;;16.70;90.90;;;;;;6218395;22;20078;-76
2023/05/30 06:49:10;;;;;;;1999.90;999.90;;;16.70;90.60;;;;;;6217907;23;20518;-76
2023/05/30 06:51:36;;;;;;;1999.90;999.90;;;16.60;91.10;;;;;;6217556;23;20072;-76
2023/05/30 06:54:02;;;;;;;1999.90;999.90;;;16.60;91.30;;;;;;6217656;23;20039;-77
2023/05/30 06:56:27;;;;;;;1999.90;999.90;;;16.70;90.80;;;;;;6217812;22;20012;-78
2023/05/30 06:58:54;;;;;;;1999.90;999.90;;;16.80;90.30;;;;;;6217847;22;20009;-78
2023/05/30 07:01:20;;;;;;;1999.90;999.90;;;16.80;90.30;;;;;;6322736;22;20040;-78
2023/05/30 07:03:46;;;;;;;1999.90;999.90;;;16.80;90.50;;;;;;6218057;22;20074;-78
2023/05/30 07:06:12;;;;;;;1999.90;999.90;;;17.00;90.20;;;;;;6324452;22;20016;-79
2023/05/30 07:08:37;;;;;;;1999.90;999.90;;;17.10;90.10;;;;;;6323744;22;20017;-78
2023/05/30 07:11:03;;;;;;;1999.90;999.90;;;17.30;89.60;;;;;;6322685;22;20088;-78
2023/05/30 07:13:29;;;;;;;1999.90;999.90;;;17.40;88.20;;;;;;6218174;22;20032;-78
2023/05/30 07:15:55;;;;;;;1999.90;999.90;;;17.40;89.20;;;;;;6217878;22;20001;-78
2023/05/30 07:18:20;;;;;;;1999.90;999.90;;;17.60;88.60;;;;;;6218920;23;20012;-79
2023/05/30 07:20:46;;;;;;;1999.90;999.90;;;17.90;88.20;;;;;;6220708;22;20013;-79
2023/05/30 07:23:11;;;;;;;1999.90;999.90;;;18.10;85.60;;;;;;6217235;22;20027;-79
2023/05/30 07:25:37;;;;;;;1999.90;999.90;;;18.10;86.30;;;;;;6322695;22;20008;-78
2023/05/30 07:28:02;;;;;;;1999.90;999.90;;;18.10;85.80;;;;;;6322931;22;20034;-78
2023/05/30 07:30:28;;;;;;;1999.90;999.90;;;18.40;87.40;;;;;;6217978;22;20475;-79
2023/05/30 07:32:54;;;;;;;1999.90;999.90;;;18.30;85.10;;;;;;6322900;22;20032;-79
2023/05/30 07:35:19;;;;;;;1999.90;999.90;;;18.60;85.30;;;;;;6218059;22;20496;-78
2023/05/30 07:37:45;;;;;;;1999.90;999.90;;;18.60;84.90;;;;;;6218366;22;20016;-78
2023/05/30 07:40:12;;;;;;;1999.90;999.90;;;18.80;84.90;;;;;;6218669;22;20009;-77
2023/05/30 07:42:37;;;;;;;1999.90;999.90;;;19.10;84.00;;;;;;6217585;23;20009;-78
2023/05/30 07:45:03;;;;;;;1999.90;999.90;;;19.10;82.80;;;;;;6217738;22;20052;-78
2023/05/30 07:47:29;;;;;;;1999.90;999.90;;;19.00;83.60;;;;;;6323706;22;20017;-77
2023/05/30 07:49:54;;;;;;;1999.90;999.90;;;19.20;82.50;;;;;;6218831;22;20449;-78
2023/05/30 07:52:20;;;;;;;1999.90;999.90;;;19.30;81.40;;;;;;6217515;22;20344;-78
2023/05/30 07:54:45;;;;;;;1999.90;999.90;;;19.60;82.60;;;;;;6216810;22;22331;-78
2023/05/30 07:57:13;;;;;;;1999.90;999.90;;;20.00;81.70;;;;;;6323888;22;20031;-77
2023/05/30 07:59:41;;;;;;;1999.90;999.90;;;20.30;79.00;;;;;;6220409;22;20005;-77
2023/05/30 08:02:07;;;;;;;1999.90;999.90;;;20.40;78.80;;;;;;6217506;22;20127;-78
2023/05/30 08:04:33;;;;;;;1999.90;999.90;;;20.60;79.50;;;;;;6217055;22;21824;-78
2023/05/30 08:06:58;;;;;;;1999.90;999.90;;;20.60;78.70;;;;;;6217826;22;20013;-78
2023/05/30 08:09:24;;;;;;;1999.90;999.90;;;20.70;77.20;;;;;;6218801;22;20479;-78
2023/05/30 08:11:49;;;;;;;1999.90;999.90;;;20.60;79.20;;;;;;6217678;22;20009;-78
2023/05/30 08:14:15;;;;;;;1999.90;999.90;;;20.70;77.60;;;;;;6322725;22;29578;-78
2023/05/30 08:16:40;;;;;;;1999.90;999.90;;;20.70;77.60;;;;;;6217919;22;22286;-78
2023/05/30 08:19:06;;;;;;;1999.90;999.90;;;20.60;77.10;;;;;;6218474;22;20017;-78
2023/05/30 08:21:32;;;;;;;1999.90;999.90;;;20.70;77.50;;;;;;6217284;22;20005;-78
2023/05/30 08:23:58;;;;;;;1999.90;999.90;;;20.90;76.40;;;;;;6323226;22;20428;-78
2023/05/30 08:26:24;;;;;;;1999.90;999.90;;;21.10;78.70;;;;;;6323777;22;20005;-78
2023/05/30 08:28:51;;;;;;;1999.90;999.90;;;21.30;75.30;;;;;;6323019;22;20021;-78
2023/05/30 08:31:17;;;;;;;1999.90;999.90;;;21.10;76.20;;;;;;6217369;22;20454;-78
2023/05/30 08:33:43;;;;;;;1999.90;999.90;;;21.00;76.00;;;;;;6218041;22;20013;-78
2023/05/30 08:36:08;;;;;;;1999.90;999.90;;;21.20;76.10;;;;;;6216439;22;25262;-83
2023/05/30 08:38:34;;;;;;;1999.90;999.90;;;21.40;77.20;;;;;;6323354;22;20017;-81
2023/05/30 08:40:59;;;;;;;1999.90;999.90;;;21.10;75.00;;;;;;6323167;22;20011;-79
2023/05/30 08:43:25;;;;;;;1999.90;999.90;;;21.00;76.00;;;;;;6323873;22;20009;-81
2023/05/30 08:45:55;;;;;;;1999.90;999.90;;;21.40;74.80;;;;;;6325204;22;20009;-82
2023/05/30 08:48:23;;;;;;;1999.90;999.90;;;21.60;73.60;;;;;;6324699;22;20456;-79
2023/05/30 08:50:50;;;;;;;1999.90;999.90;;;21.60;73.50;;;;;;6218268;22;20464;-80
2023/05/30 08:53:41;;;;;;;1999.90;999.90;;;21.70;73.20;;;;;;6323978;22;20013;-84
2023/05/30 08:56:13;;;;;;;1999.90;999.90;;;21.60;73.50;;;;;;6322744;22;20096;-80
2023/05/30 08:58:50;;;;;;;1999.90;999.90;;;21.90;73.10;;;;;;6323580;22;20393;-78
2023/05/30 09:01:17;;;;;;;1999.90;999.90;;;22.20;72.80;;;;;;6323807;22;20005;-78
2023/05/30 09:03:44;;;;;;;1999.90;999.90;;;22.50;73.90;;;;;;6219497;22;20048;-87
2023/05/30 09:06:13;;;;;;;1999.90;999.90;;;22.70;71.00;;;;;;6325802;22;20009;-81
2023/05/30 09:08:47;;;;;;;1999.90;999.90;;;23.20;70.80;;;;;;6325436;22;20131;-82
2023/05/30 09:11:15;;;;;;;1999.90;999.90;;;23.30;69.10;;;;;;6218329;22;20001;-77
2023/05/30 09:13:43;;;;;;;1999.90;999.90;;;23.30;69.60;;;;;;6215596;22;20017;-78
2023/05/30 09:16:08;;;;;;;1999.90;999.90;;;23.10;68.80;;;;;;6216941;23;20005;-77
2023/05/30 09:18:34;;;;;;;1999.90;999.90;;;23.00;70.10;;;;;;6217521;22;20009;-78
2023/05/30 09:21:01;;;;;;;1999.90;999.90;;;22.80;70.50;;;;;;6217572;22;20036;-79
2023/05/30 09:23:27;;;;;;;1999.90;999.90;;;22.80;71.90;;;;;;6221920;23;20009;-78
2023/05/30 09:25:52;;;;;;;1999.90;999.90;;;22.70;69.70;;;;;;6325333;22;20016;-79
2023/05/30 09:28:26;;;;;;;1999.90;999.90;;;23.00;68.90;;;;;;6326266;22;20456;-77
2023/05/30 09:30:54;;;;;;;1999.90;999.90;;;23.20;69.70;;;;;;6323671;22;20020;-77
2023/05/30 09:33:20;;;;;;;1999.90;999.90;;;23.30;68.30;;;;;;6322401;22;20052;-78
2023/05/30 09:35:51;;;;;;;1999.90;999.90;;;23.60;69.20;;;;;;6218512;23;20016;-77
2023/05/30 09:38:20;;;;;;;1999.90;999.90;;;23.60;70.10;;;;;;6219911;23;20433;-79
2023/05/30 09:40:49;;;;;;;1999.90;999.90;;;23.30;65.90;;;;;;6219218;22;20005;-76
2023/05/30 09:43:30;;;;;;;1999.90;999.90;;;23.40;70.50;;;;;;6219864;22;20002;-80
2023/05/30 09:45:56;;;;;;;1999.90;999.90;;;23.70;68.60;;;;;;6326291;22;20094;-82
2023/05/30 09:48:21;;;;;;;1999.90;999.90;;;23.90;67.70;;;;;;6328734;22;20062;-78
2023/05/30 09:50:51;;;;;;;1999.90;999.90;;;23.60;67.20;;;;;;6326624;22;20001;-78
2023/05/30 09:53:17;;;;;;;1999.90;999.90;;;23.40;68.70;;;;;;6335947;22;20047;-83
2023/05/30 09:55:42;;;;;;;1999.90;999.90;;;23.60;68.70;;;;;;6328199;22;20041;-81
2023/05/30 09:58:17;;;;;;;1999.90;999.90;;;23.70;68.00;;;;;;6327403;22;20028;-83
2023/05/30 10:00:50;;;;;;;1999.90;999.90;;;23.80;67.50;;;;;;6218944;22;20080;-83
2023/05/30 10:03:15;;;;;;;1999.90;999.90;;;24.00;66.30;;;;;;6216440;23;20036;-85
2023/05/30 10:05:41;;;;;;;1999.90;999.90;;;24.10;66.00;;;;;;6326090;22;20024;-80
2023/05/30 10:08:07;;;;;;;1999.90;999.90;;;24.30;67.70;;;;;;6218231;22;20185;-86
2023/05/30 10:10:33;;;;;;;1999.90;999.90;;;24.50;69.40;;;;;;6326792;22;20057;-86
2023/05/30 10:13:00;;;;;;;1999.90;999.90;;;24.20;67.90;;;;;;6332438;22;20009;-83
2023/05/30 10:15:26;;;;;;;1999.90;999.90;;;24.60;67.30;;;;;;6333696;22;20044;-83
2023/05/30 10:18:08;;;;;;;1999.90;999.90;;;25.10;65.40;;;;;;6234554;22;20423;-83
2023/05/30 10:20:37;;;;;;;1999.90;999.90;;;25.00;65.30;;;;;;6330846;22;20013;-83
2023/05/30 10:23:06;;;;;;;1999.90;999.90;;;25.00;65.00;;;;;;6326691;22;20013;-84
2023/05/30 10:25:37;;;;;;;1999.90;999.90;;;24.50;63.30;;;;;;6222093;23;20001;-83
2023/05/30 10:28:05;;;;;;;1999.90;999.90;;;24.60;63.80;;;;;;6222077;23;20431;-82
2023/05/30 10:30:33;;;;;;;1999.90;999.90;;;24.50;64.20;;;;;;6328230;22;20017;-84
2023/05/30 10:33:06;;;;;;;1999.90;999.90;;;24.60;64.80;;;;;;6329465;22;20019;-83
2023/05/30 10:35:33;;;;;;;1999.90;999.90;;;24.40;66.30;;;;;;6328685;22;20424;-84
2023/05/30 10:38:00;;;;;;;1999.90;999.90;;;24.70;65.50;;;;;;6327266;22;20041;-83
2023/05/30 10:40:45;;;;;;;1999.90;999.90;;;24.90;66.70;;;;;;6221293;23;20001;-83
2023/05/30 10:43:13;;;;;;;1999.90;999.90;;;24.90;68.40;;;;;;6326427;22;20001;-83
2023/05/30 10:46:21;;;;;;;1999.90;999.90;;;25.10;62.60;;;;;;6223145;22;20056;-83
2023/05/30 10:48:50;;;;;;;1999.90;999.90;;;25.30;64.40;;;;;;6307198;22;20005;-83
2023/05/30 10:51:16;;;;;;;1999.90;999.90;;;25.20;64.70;;;;;;6221716;22;20055;-82
2023/05/30 10:53:43;;;;;;;1999.90;999.90;;;25.10;63.10;;;;;;6328082;22;20074;-83
2023/05/30 10:56:34;;;;;;;1999.90;999.90;;;25.40;62.10;;;;;;6223857;22;20009;-83
2023/05/30 10:59:02;;;;;;;1999.90;999.90;;;25.20;63.80;;;;;;6322346;22;20024;-85
2023/05/30 11:01:32;;;;;;;1999.90;999.90;;;25.10;63.40;;;;;;6218066;22;20005;-82
2023/05/30 11:04:12;;;;;;;1999.90;999.90;;;25.10;67.40;;;;;;6330086;22;20001;-83
2023/05/30 11:06:44;;;;;;;1999.90;999.90;;;24.90;61.70;;;;;;6321019;22;20777;-84
2023/05/30 11:09:14;;;;;;;1999.90;999.90;;;25.10;66.80;;;;;;6323341;22;20031;-83
2023/05/30 11:11:53;;;;;;;1999.90;999.90;;;25.10;62.20;;;;;;6217416;22;20055;-85
2023/05/30 11:14:28;;;;;;;1999.90;999.90;;;24.80;63.30;;;;;;6324688;22;20012;-81
2023/05/30 11:17:01;;;;;;;1999.90;999.90;;;25.10;62.30;;;;;;6219535;23;20008;-81
2023/05/30 11:19:47;;;;;;;1999.90;999.90;;;25.10;62.30;;;;;;6219711;23;20012;-84
2023/05/30 11:22:13;;;;;;;1999.90;999.90;;;25.20;62.50;;;;;;6218247;22;20025;-85
2023/05/30 11:24:40;;;;;;;1999.90;999.90;;;25.20;60.30;;;;;;6219412;22;20483;-82
2023/05/30 11:27:16;;;;;;;1999.90;999.90;;;25.20;60.20;;;;;;6218706;22;20001;-81
2023/05/30 11:29:55;;;;;;;1999.90;999.90;;;25.40;66.70;;;;;;6324997;22;20153;-81
2023/05/30 11:32:23;;;;;;;1999.90;999.90;;;26.00;62.70;;;;;;6326993;22;20012;-83
2023/05/30 11:35:04;;;;;;;1999.90;999.90;;;25.80;61.90;;;;;;6330199;22;20013;-84
2023/05/30 11:37:35;;;;;;;1999.90;999.90;;;25.70;61.00;;;;;;6332776;22;20031;-84
2023/05/30 11:40:01;;;;;;;1999.90;999.90;;;26.00;62.60;;;;;;6334258;22;20047;-83
2023/05/30 11:42:28;;;;;;;1999.90;999.90;;;26.10;60.70;;;;;;6334790;22;20004;-85
2023/05/30 11:44:54;;;;;;;1999.90;999.90;;;26.00;60.20;;;;;;6337265;22;20005;-84
2023/05/30 11:47:20;;;;;;;1999.90;999.90;;;26.20;63.50;;;;;;6336400;22;20031;-83
2023/05/30 11:49:46;;;;;;;1999.90;999.90;;;26.30;60.60;;;;;;6234419;22;20447;-82
2023/05/30 11:52:14;;;;;;;1999.90;999.90;;;26.40;63.50;;;;;;6226275;22;20468;-85
2023/05/30 11:54:40;;;;;;;1999.90;999.90;;;26.10;61.40;;;;;;6330285;22;20035;-81
2023/05/30 11:57:07;;;;;;;1999.90;999.90;;;26.50;59.80;;;;;;6225443;23;20104;-79
2023/05/30 11:59:33;;;;;;;1999.90;999.90;;;26.40;59.70;;;;;;6223795;23;20019;-82
2023/05/30 12:02:01;;;;;;;1999.90;999.90;;;26.80;60.80;;;;;;6326079;22;20066;-83